sensor_id;sensor_type;location;lat;lon;timestamp;pressure;altitude;pressure_sealevel;temperature;humidity
46846;BME280;33947;46.804;134.252;2023-07-22T00:00:44;100904.44;;;25.35;91.41
46846;BME280;33947;46.804;134.252;2023-07-22T00:03:52;100916.81;;;25.39;91.06
46846;BME280;33947;46.804;134.252;2023-07-22T00:07:16;100919.19;;;25.32;91.02
46846;BME280;33947;46.804;134.252;2023-07-22T00:10:21;100888.06;;;25.13;91.25
46846;BME280;33947;46.804;134.252;2023-07-22T00:13:25;100906.16;;;25.03;91.49
46846;BME280;33947;46.804;134.252;2023-07-22T00:16:36;100902.28;;;25.17;91.32
46846;BME280;33947;46.804;134.252;2023-07-22T00:19:41;100898.09;;;25.13;90.68
46846;BME280;33947;46.804;134.252;2023-07-22T00:22:49;100918.97;;;25.24;90.83
46846;BME280;33947;46.804;134.252;2023-07-22T00:25:58;100916.56;;;25.31;90.54
46846;BME280;33947;46.804;134.252;2023-07-22T00:29:03;100912.22;;;25.39;89.78
46846;BME280;33947;46.804;134.252;2023-07-22T00:32:12;100906.00;;;25.60;89.14
46846;BME280;33947;46.804;134.252;2023-07-22T00:35:17;100924.66;;;25.86;88.38
46846;BME280;33947;46.804;134.252;2023-07-22T00:38:22;100898.84;;;25.80;87.51
46846;BME280;33947;46.804;134.252;2023-07-22T00:41:27;100895.88;;;25.83;88.13
46846;BME280;33947;46.804;134.252;2023-07-22T00:44:36;100937.94;;;26.00;88.38
46846;BME280;33947;46.804;134.252;2023-07-22T00:47:41;100937.41;;;26.07;87.82
46846;BME280;33947;46.804;134.252;2023-07-22T00:50:46;100922.34;;;26.03;87.62
46846;BME280;33947;46.804;134.252;2023-07-22T00:53:51;100929.09;;;26.08;87.48
46846;BME280;33947;46.804;134.252;2023-07-22T00:56:58;100923.06;;;26.05;86.91
46846;BME280;33947;46.804;134.252;2023-07-22T01:00:03;100939.38;;;26.16;87.13
46846;BME280;33947;46.804;134.252;2023-07-22T01:03:12;100902.56;;;26.00;87.12
46846;BME280;33947;46.804;134.252;2023-07-22T01:06:17;100927.59;;;26.37;86.00
46846;BME280;33947;46.804;134.252;2023-07-22T01:09:22;100921.13;;;26.69;84.41
46846;BME280;33947;46.804;134.252;2023-07-22T01:12:33;100912.94;;;26.90;82.99
46846;BME280;33947;46.804;134.252;2023-07-22T01:15:39;100931.44;;;27.06;82.65
46846;BME280;33947;46.804;134.252;2023-07-22T01:18:47;100915.72;;;27.20;82.50
46846;BME280;33947;46.804;134.252;2023-07-22T01:21:55;100919.88;;;27.34;81.47
46846;BME280;33947;46.804;134.252;2023-07-22T01:25:03;100893.34;;;27.65;79.70
46846;BME280;33947;46.804;134.252;2023-07-22T01:28:13;100889.09;;;28.20;76.65
46846;BME280;33947;46.804;134.252;2023-07-22T01:31:20;100918.13;;;28.21;76.62
46846;BME280;33947;46.804;134.252;2023-07-22T01:34:24;100905.81;;;27.87;76.97
46846;BME280;33947;46.804;134.252;2023-07-22T01:37:29;100916.72;;;27.38;79.25
46846;BME280;33947;46.804;134.252;2023-07-22T01:40:33;100927.97;;;27.55;79.32
46846;BME280;33947;46.804;134.252;2023-07-22T01:43:49;100933.97;;;27.58;78.92
46846;BME280;33947;46.804;134.252;2023-07-22T01:47:04;100927.25;;;27.72;78.15
46846;BME280;33947;46.804;134.252;2023-07-22T01:50:09;100918.16;;;27.42;78.85
46846;BME280;33947;46.804;134.252;2023-07-22T01:56:59;100917.97;;;27.05;80.42
46846;BME280;33947;46.804;134.252;2023-07-22T02:00:10;100908.31;;;26.91;80.24
46846;BME280;33947;46.804;134.252;2023-07-22T02:03:15;100912.50;;;26.95;80.20
46846;BME280;33947;46.804;134.252;2023-07-22T02:06:22;100907.81;;;27.16;79.60
46846;BME280;33947;46.804;134.252;2023-07-22T02:09:27;100903.09;;;27.28;79.43
46846;BME280;33947;46.804;134.252;2023-07-22T02:12:32;100893.91;;;27.29;79.13
46846;BME280;33947;46.804;134.252;2023-07-22T02:15:37;100870.94;;;27.12;78.85
46846;BME280;33947;46.804;134.252;2023-07-22T02:18:42;100879.81;;;27.14;79.59
46846;BME280;33947;46.804;134.252;2023-07-22T02:21:47;100870.47;;;27.17;78.59
46846;BME280;33947;46.804;134.252;2023-07-22T02:24:52;100880.09;;;27.11;79.17
46846;BME280;33947;46.804;134.252;2023-07-22T02:27:57;100896.03;;;27.16;79.68
46846;BME280;33947;46.804;134.252;2023-07-22T02:31:02;100885.72;;;27.29;79.08
46846;BME280;33947;46.804;134.252;2023-07-22T02:34:11;100883.16;;;27.57;78.76
46846;BME280;33947;46.804;134.252;2023-07-22T02:37:16;100881.84;;;27.71;78.00
46846;BME280;33947;46.804;134.252;2023-07-22T02:40:21;100882.00;;;27.70;78.33
46846;BME280;33947;46.804;134.252;2023-07-22T02:43:25;100886.22;;;28.02;76.68
46846;BME280;33947;46.804;134.252;2023-07-22T02:46:32;100847.00;;;28.51;74.30
46846;BME280;33947;46.804;134.252;2023-07-22T02:49:37;100876.78;;;28.82;73.17
46846;BME280;33947;46.804;134.252;2023-07-22T02:52:42;100867.72;;;28.99;73.68
46846;BME280;33947;46.804;134.252;2023-07-22T02:55:47;100862.16;;;29.55;71.28
46846;BME280;33947;46.804;134.252;2023-07-22T02:58:52;100862.28;;;29.36;72.49
46846;BME280;33947;46.804;134.252;2023-07-22T03:01:57;100846.19;;;29.51;71.66
46846;BME280;33947;46.804;134.252;2023-07-22T03:05:06;100853.13;;;29.89;69.69
46846;BME280;33947;46.804;134.252;2023-07-22T03:08:12;100855.78;;;29.37;71.00
46846;BME280;33947;46.804;134.252;2023-07-22T03:11:19;100863.28;;;29.16;72.44
46846;BME280;33947;46.804;134.252;2023-07-22T03:14:24;100881.28;;;29.37;71.95
46846;BME280;33947;46.804;134.252;2023-07-22T03:17:29;100858.38;;;29.38;70.51
46846;BME280;33947;46.804;134.252;2023-07-22T03:20:34;100888.19;;;29.59;70.46
46846;BME280;33947;46.804;134.252;2023-07-22T03:23:39;100873.47;;;29.60;70.51
46846;BME280;33947;46.804;134.252;2023-07-22T03:26:44;100854.38;;;29.32;71.86
46846;BME280;33947;46.804;134.252;2023-07-22T03:29:48;100860.81;;;29.23;71.65
46846;BME280;33947;46.804;134.252;2023-07-22T03:32:56;100853.34;;;28.97;71.97
46846;BME280;33947;46.804;134.252;2023-07-22T03:36:01;100861.56;;;28.97;71.89
46846;BME280;33947;46.804;134.252;2023-07-22T03:39:08;100871.25;;;29.10;71.66
46846;BME280;33947;46.804;134.252;2023-07-22T03:42:13;100865.84;;;28.82;72.19
46846;BME280;33947;46.804;134.252;2023-07-22T03:45:19;100872.72;;;28.86;72.35
46846;BME280;33947;46.804;134.252;2023-07-22T03:48:27;100878.88;;;28.60;73.40
46846;BME280;33947;46.804;134.252;2023-07-22T03:51:31;100872.34;;;28.43;74.01
46846;BME280;33947;46.804;134.252;2023-07-22T03:54:36;100869.81;;;28.59;73.33
46846;BME280;33947;46.804;134.252;2023-07-22T03:57:42;100859.66;;;28.98;72.23
46846;BME280;33947;46.804;134.252;2023-07-22T04:04:24;100870.72;;;29.24;71.30
46846;BME280;33947;46.804;134.252;2023-07-22T04:07:31;100866.81;;;29.27;71.16
46846;BME280;33947;46.804;134.252;2023-07-22T04:10:36;100876.41;;;29.67;70.50
46846;BME280;33947;46.804;134.252;2023-07-22T04:13:41;100876.00;;;29.80;69.57
46846;BME280;33947;46.804;134.252;2023-07-22T04:16:45;100875.03;;;29.45;69.77
46846;BME280;33947;46.804;134.252;2023-07-22T04:19:51;100753.16;;;28.60;71.12
46846;BME280;33947;46.804;134.252;2023-07-22T04:22:56;100863.63;;;29.31;71.91
46846;BME280;33947;46.804;134.252;2023-07-22T04:26:04;100848.53;;;29.64;70.77
46846;BME280;33947;46.804;134.252;2023-07-22T04:29:08;100863.75;;;29.30;71.46
46846;BME280;33947;46.804;134.252;2023-07-22T04:32:13;100837.66;;;29.17;72.26
46846;BME280;33947;46.804;134.252;2023-07-22T04:35:19;100860.56;;;29.53;71.61
46846;BME280;33947;46.804;134.252;2023-07-22T04:38:25;100840.03;;;29.75;71.05
46846;BME280;33947;46.804;134.252;2023-07-22T04:41:30;100851.25;;;30.08;70.68
46846;BME280;33947;46.804;134.252;2023-07-22T04:44:35;100834.38;;;30.21;69.48
46846;BME280;33947;46.804;134.252;2023-07-22T04:47:39;100853.50;;;30.13;69.15
46846;BME280;33947;46.804;134.252;2023-07-22T04:50:45;100840.88;;;29.94;70.14
46846;BME280;33947;46.804;134.252;2023-07-22T04:53:50;100854.66;;;29.84;70.84
46846;BME280;33947;46.804;134.252;2023-07-22T04:56:54;100851.41;;;29.62;71.46
46846;BME280;33947;46.804;134.252;2023-07-22T04:59:58;100858.44;;;30.09;69.33
46846;BME280;33947;46.804;134.252;2023-07-22T05:03:06;100860.69;;;30.49;68.51
46846;BME280;33947;46.804;134.252;2023-07-22T05:06:11;100729.84;;;30.08;67.63
46846;BME280;33947;46.804;134.252;2023-07-22T05:09:55;100845.81;;;30.59;68.35
46846;BME280;33947;46.804;134.252;2023-07-22T05:12:59;100829.19;;;30.53;68.33
46846;BME280;33947;46.804;134.252;2023-07-22T05:16:04;100834.75;;;30.35;69.31
46846;BME280;33947;46.804;134.252;2023-07-22T05:19:09;100822.78;;;30.44;68.79
46846;BME280;33947;46.804;134.252;2023-07-22T05:22:13;100818.31;;;30.35;68.47
46846;BME280;33947;46.804;134.252;2023-07-22T05:25:18;100820.69;;;30.29;69.35
46846;BME280;33947;46.804;134.252;2023-07-22T05:28:22;100830.69;;;30.04;69.73
46846;BME280;33947;46.804;134.252;2023-07-22T05:31:29;100825.81;;;30.24;69.84
46846;BME280;33947;46.804;134.252;2023-07-22T05:34:33;100821.34;;;30.23;69.22
46846;BME280;33947;46.804;134.252;2023-07-22T05:37:38;100816.97;;;30.47;68.91
46846;BME280;33947;46.804;134.252;2023-07-22T05:40:46;100790.22;;;30.32;68.84
46846;BME280;33947;46.804;134.252;2023-07-22T05:43:50;100796.72;;;30.31;69.04
46846;BME280;33947;46.804;134.252;2023-07-22T05:47:02;100758.81;;;30.18;68.78
46846;BME280;33947;46.804;134.252;2023-07-22T05:50:07;100782.34;;;30.38;68.88
46846;BME280;33947;46.804;134.252;2023-07-22T05:53:15;100770.66;;;30.19;69.59
46846;BME280;33947;46.804;134.252;2023-07-22T05:56:19;100769.50;;;29.69;70.35
46846;BME280;33947;46.804;134.252;2023-07-22T05:59:27;100761.13;;;29.70;71.11
46846;BME280;33947;46.804;134.252;2023-07-22T06:02:34;100772.63;;;29.74;70.17
46846;BME280;33947;46.804;134.252;2023-07-22T06:05:44;100782.97;;;29.62;70.88
46846;BME280;33947;46.804;134.252;2023-07-22T06:08:49;100757.22;;;29.46;71.51
46846;BME280;33947;46.804;134.252;2023-07-22T06:11:53;100765.19;;;29.66;71.52
46846;BME280;33947;46.804;134.252;2023-07-22T06:15:00;100751.41;;;29.50;71.71
46846;BME280;33947;46.804;134.252;2023-07-22T06:18:07;100769.72;;;29.49;71.83
46846;BME280;33947;46.804;134.252;2023-07-22T06:21:15;100744.75;;;29.08;72.73
46846;BME280;33947;46.804;134.252;2023-07-22T06:24:20;100732.91;;;28.81;73.42
46846;BME280;33947;46.804;134.252;2023-07-22T06:27:30;100757.41;;;28.91;73.63
46846;BME280;33947;46.804;134.252;2023-07-22T06:30:34;100756.88;;;29.05;73.26
46846;BME280;33947;46.804;134.252;2023-07-22T06:33:41;100750.06;;;29.09;73.40
46846;BME280;33947;46.804;134.252;2023-07-22T06:36:47;100751.03;;;29.00;73.80
46846;BME280;33947;46.804;134.252;2023-07-22T06:39:55;100736.56;;;28.89;74.13
46846;BME280;33947;46.804;134.252;2023-07-22T06:43:00;100733.59;;;28.83;74.22
46846;BME280;33947;46.804;134.252;2023-07-22T06:46:07;100733.72;;;29.17;73.35
46846;BME280;33947;46.804;134.252;2023-07-22T06:49:13;100735.47;;;29.27;72.80
46846;BME280;33947;46.804;134.252;2023-07-22T06:52:21;100707.97;;;29.02;73.48
46846;BME280;33947;46.804;134.252;2023-07-22T06:55:25;100734.00;;;29.32;73.05
46846;BME280;33947;46.804;134.252;2023-07-22T06:58:30;100730.06;;;29.35;72.93
46846;BME280;33947;46.804;134.252;2023-07-22T07:01:35;100735.84;;;29.32;72.68
46846;BME280;33947;46.804;134.252;2023-07-22T07:04:41;100731.06;;;28.89;74.62
46846;BME280;33947;46.804;134.252;2023-07-22T07:07:46;100716.53;;;28.71;75.07
46846;BME280;33947;46.804;134.252;2023-07-22T07:10:50;100717.00;;;28.48;76.07
46846;BME280;33947;46.804;134.252;2023-07-22T07:13:55;100715.28;;;28.47;75.60
46846;BME280;33947;46.804;134.252;2023-07-22T07:17:05;100700.75;;;28.28;75.77
46846;BME280;33947;46.804;134.252;2023-07-22T07:20:14;100710.88;;;28.36;75.81
46846;BME280;33947;46.804;134.252;2023-07-22T07:23:22;100713.03;;;28.42;75.57
46846;BME280;33947;46.804;134.252;2023-07-22T07:26:31;100672.31;;;28.21;75.10
46846;BME280;33947;46.804;134.252;2023-07-22T07:30:12;100692.94;;;28.34;74.28
46846;BME280;33947;46.804;134.252;2023-07-22T07:34:06;100716.75;;;28.59;74.84
46846;BME280;33947;46.804;134.252;2023-07-22T07:37:19;100671.63;;;28.37;74.20
46846;BME280;33947;46.804;134.252;2023-07-22T07:40:23;100713.81;;;28.53;74.64
46846;BME280;33947;46.804;134.252;2023-07-22T07:43:31;100683.56;;;28.54;74.36
46846;BME280;33947;46.804;134.252;2023-07-22T07:46:36;100712.22;;;28.50;75.00
46846;BME280;33947;46.804;134.252;2023-07-22T07:49:45;100709.25;;;28.25;76.07
46846;BME280;33947;46.804;134.252;2023-07-22T07:52:49;100698.22;;;28.17;76.41
46846;BME280;33947;46.804;134.252;2023-07-22T07:55:58;100699.09;;;28.36;76.29
46846;BME280;33947;46.804;134.252;2023-07-22T07:59:13;100701.53;;;28.39;75.89
46846;BME280;33947;46.804;134.252;2023-07-22T08:02:18;100685.25;;;28.19;76.12
46846;BME280;33947;46.804;134.252;2023-07-22T08:05:24;100594.44;;;27.71;75.46
46846;BME280;33947;46.804;134.252;2023-07-22T08:08:29;100707.44;;;28.34;76.17
46846;BME280;33947;46.804;134.252;2023-07-22T08:11:40;100704.06;;;28.22;76.13
46846;BME280;33947;46.804;134.252;2023-07-22T08:14:47;100712.50;;;28.01;76.80
46846;BME280;33947;46.804;134.252;2023-07-22T08:17:51;100706.19;;;28.00;77.29
46846;BME280;33947;46.804;134.252;2023-07-22T08:20:59;100711.38;;;27.94;77.24
46846;BME280;33947;46.804;134.252;2023-07-22T08:24:05;100706.53;;;27.87;77.42
46846;BME280;33947;46.804;134.252;2023-07-22T08:27:09;100706.06;;;27.64;77.95
46846;BME280;33947;46.804;134.252;2023-07-22T08:30:14;100692.91;;;27.78;77.64
46846;BME280;33947;46.804;134.252;2023-07-22T08:33:18;100702.69;;;27.80;77.82
46846;BME280;33947;46.804;134.252;2023-07-22T08:36:41;100691.00;;;27.60;78.66
46846;BME280;33947;46.804;134.252;2023-07-22T08:39:46;100708.06;;;27.62;78.94
46846;BME280;33947;46.804;134.252;2023-07-22T08:42:52;100710.63;;;27.64;78.86
46846;BME280;33947;46.804;134.252;2023-07-22T08:46:00;100722.88;;;27.59;78.94
46846;BME280;33947;46.804;134.252;2023-07-22T08:49:07;100722.31;;;27.56;79.22
46846;BME280;33947;46.804;134.252;2023-07-22T08:52:14;100718.19;;;27.52;79.87
46846;BME280;33947;46.804;134.252;2023-07-22T08:55:19;100715.72;;;27.39;80.47
46846;BME280;33947;46.804;134.252;2023-07-22T08:58:24;100709.81;;;27.43;80.21
46846;BME280;33947;46.804;134.252;2023-07-22T09:01:29;100715.31;;;27.34;80.89
46846;BME280;33947;46.804;134.252;2023-07-22T09:04:34;100722.06;;;27.29;81.02
46846;BME280;33947;46.804;134.252;2023-07-22T09:07:41;100725.81;;;27.28;80.75
46846;BME280;33947;46.804;134.252;2023-07-22T09:10:49;100728.09;;;27.23;81.01
46846;BME280;33947;46.804;134.252;2023-07-22T09:13:55;100742.06;;;27.10;81.62
46846;BME280;33947;46.804;134.252;2023-07-22T09:17:01;100740.63;;;26.86;82.80
46846;BME280;33947;46.804;134.252;2023-07-22T09:20:06;100737.84;;;26.67;83.36
46846;BME280;33947;46.804;134.252;2023-07-22T09:23:11;100745.88;;;26.58;84.30
46846;BME280;33947;46.804;134.252;2023-07-22T09:26:19;100750.84;;;26.43;85.36
46846;BME280;33947;46.804;134.252;2023-07-22T09:29:38;100755.97;;;26.27;86.37
46846;BME280;33947;46.804;134.252;2023-07-22T09:32:49;100747.94;;;26.15;86.79
46846;BME280;33947;46.804;134.252;2023-07-22T09:35:55;100724.31;;;25.95;86.71
46846;BME280;33947;46.804;134.252;2023-07-22T09:39:03;100743.41;;;26.05;86.82
46846;BME280;33947;46.804;134.252;2023-07-22T09:42:08;100751.94;;;25.90;87.18
46846;BME280;33947;46.804;134.252;2023-07-22T09:45:15;100754.13;;;25.65;88.87
46846;BME280;33947;46.804;134.252;2023-07-22T09:48:22;100740.69;;;25.74;87.26
46846;BME280;33947;46.804;134.252;2023-07-22T09:51:33;100756.19;;;25.83;86.93
46846;BME280;33947;46.804;134.252;2023-07-22T09:54:48;100754.09;;;25.86;85.80
46846;BME280;33947;46.804;134.252;2023-07-22T09:57:57;100759.56;;;25.96;85.42
46846;BME280;33947;46.804;134.252;2023-07-22T10:01:02;100756.03;;;25.75;86.55
46846;BME280;33947;46.804;134.252;2023-07-22T10:04:08;100748.81;;;25.64;87.09
46846;BME280;33947;46.804;134.252;2023-07-22T10:07:15;100750.81;;;25.62;86.82
46846;BME280;33947;46.804;134.252;2023-07-22T10:10:37;100754.34;;;25.52;87.47
46846;BME280;33947;46.804;134.252;2023-07-22T10:13:42;100755.59;;;25.48;87.61
46846;BME280;33947;46.804;134.252;2023-07-22T10:16:49;100738.13;;;25.51;86.72
46846;BME280;33947;46.804;134.252;2023-07-22T10:19:56;100756.06;;;25.53;86.78
46846;BME280;33947;46.804;134.252;2023-07-22T10:23:01;100746.56;;;25.48;86.73
46846;BME280;33947;46.804;134.252;2023-07-22T10:26:10;100746.56;;;25.48;87.00
46846;BME280;33947;46.804;134.252;2023-07-22T10:29:18;100742.13;;;25.47;87.31
46846;BME280;33947;46.804;134.252;2023-07-22T10:32:23;100749.78;;;25.41;87.57
46846;BME280;33947;46.804;134.252;2023-07-22T10:38:38;100722.50;;;25.22;88.04
46846;BME280;33947;46.804;134.252;2023-07-22T10:41:47;100727.94;;;25.22;87.82
46846;BME280;33947;46.804;134.252;2023-07-22T10:44:51;100731.63;;;25.21;88.04
46846;BME280;33947;46.804;134.252;2023-07-22T10:48:08;100733.94;;;25.04;89.32
46846;BME280;33947;46.804;134.252;2023-07-22T10:51:16;100737.66;;;25.03;89.56
46846;BME280;33947;46.804;134.252;2023-07-22T10:54:35;100703.50;;;24.89;88.89
46846;BME280;33947;46.804;134.252;2023-07-22T10:57:50;100735.31;;;24.98;89.15
46846;BME280;33947;46.804;134.252;2023-07-22T11:00:56;100720.47;;;24.81;89.39
46846;BME280;33947;46.804;134.252;2023-07-22T11:04:25;100732.81;;;24.85;89.77
46846;BME280;33947;46.804;134.252;2023-07-22T11:08:03;100736.88;;;24.80;90.08
46846;BME280;33947;46.804;134.252;2023-07-22T11:11:14;100706.53;;;24.75;89.93
46846;BME280;33947;46.804;134.252;2023-07-22T11:14:22;100729.47;;;24.82;89.74
46846;BME280;33947;46.804;134.252;2023-07-22T11:17:32;100719.16;;;24.64;89.71
46846;BME280;33947;46.804;134.252;2023-07-22T11:20:37;100738.00;;;24.66;89.95
46846;BME280;33947;46.804;134.252;2023-07-22T11:23:41;100736.19;;;24.66;89.83
46846;BME280;33947;46.804;134.252;2023-07-22T11:26:50;100741.97;;;24.62;89.98
46846;BME280;33947;46.804;134.252;2023-07-22T11:29:58;100732.84;;;24.63;89.60
46846;BME280;33947;46.804;134.252;2023-07-22T11:33:06;100738.16;;;24.64;89.64
46846;BME280;33947;46.804;134.252;2023-07-22T11:36:10;100737.53;;;24.61;89.93
46846;BME280;33947;46.804;134.252;2023-07-22T11:39:24;100736.81;;;24.59;90.29
46846;BME280;33947;46.804;134.252;2023-07-22T11:42:29;100722.13;;;24.50;89.80
46846;BME280;33947;46.804;134.252;2023-07-22T11:45:34;100735.59;;;24.40;91.71
46846;BME280;33947;46.804;134.252;2023-07-22T11:48:50;100736.69;;;24.49;91.20
46846;BME280;33947;46.804;134.252;2023-07-22T11:52:08;100736.97;;;24.46;90.68
46846;BME280;33947;46.804;134.252;2023-07-22T11:55:13;100728.44;;;24.50;91.13
46846;BME280;33947;46.804;134.252;2023-07-22T11:58:33;100720.81;;;24.44;91.06
46846;BME280;33947;46.804;134.252;2023-07-22T12:01:39;100715.66;;;24.30;91.40
46846;BME280;33947;46.804;134.252;2023-07-22T12:04:51;100739.22;;;24.29;91.94
46846;BME280;33947;46.804;134.252;2023-07-22T12:07:56;100715.69;;;24.18;91.81
46846;BME280;33947;46.804;134.252;2023-07-22T12:11:01;100741.81;;;24.31;91.83
46846;BME280;33947;46.804;134.252;2023-07-22T12:14:15;100743.91;;;24.27;92.02
46846;BME280;33947;46.804;134.252;2023-07-22T12:17:23;100729.63;;;24.13;92.28
46846;BME280;33947;46.804;134.252;2023-07-22T12:20:31;100741.34;;;24.14;92.63
46846;BME280;33947;46.804;134.252;2023-07-22T12:23:37;100724.06;;;24.04;92.83
46846;BME280;33947;46.804;134.252;2023-07-22T12:26:42;100735.91;;;24.14;92.69
46846;BME280;33947;46.804;134.252;2023-07-22T12:29:47;100723.34;;;24.13;92.68
46846;BME280;33947;46.804;134.252;2023-07-22T12:32:55;100712.47;;;24.13;92.28
46846;BME280;33947;46.804;134.252;2023-07-22T12:36:00;100691.75;;;24.01;92.37
46846;BME280;33947;46.804;134.252;2023-07-22T12:39:04;100724.81;;;24.17;93.01
46846;BME280;33947;46.804;134.252;2023-07-22T12:42:10;100698.91;;;24.02;93.06
46846;BME280;33947;46.804;134.252;2023-07-22T12:45:14;100700.16;;;24.09;92.98
46846;BME280;33947;46.804;134.252;2023-07-22T12:48:19;100705.06;;;24.15;92.36
46846;BME280;33947;46.804;134.252;2023-07-22T12:51:24;100706.06;;;24.14;92.82
46846;BME280;33947;46.804;134.252;2023-07-22T12:54:30;100709.03;;;24.11;93.53
46846;BME280;33947;46.804;134.252;2023-07-22T12:57:35;100708.28;;;24.09;93.20
46846;BME280;33947;46.804;134.252;2023-07-22T13:00:40;100704.56;;;23.98;94.18
46846;BME280;33947;46.804;134.252;2023-07-22T13:03:45;100701.84;;;23.98;93.87
46846;BME280;33947;46.804;134.252;2023-07-22T13:06:50;100681.88;;;23.88;94.24
46846;BME280;33947;46.804;134.252;2023-07-22T13:09:58;100687.91;;;23.80;95.24
46846;BME280;33947;46.804;134.252;2023-07-22T13:13:05;100689.16;;;23.76;94.92
46846;BME280;33947;46.804;134.252;2023-07-22T13:16:10;100669.81;;;23.58;95.01
46846;BME280;33947;46.804;134.252;2023-07-22T13:19:14;100686.44;;;23.76;94.56
46846;BME280;33947;46.804;134.252;2023-07-22T13:22:19;100694.94;;;23.60;95.38
46846;BME280;33947;46.804;134.252;2023-07-22T13:25:24;100699.13;;;23.64;95.65
46846;BME280;33947;46.804;134.252;2023-07-22T13:28:29;100699.28;;;23.63;94.94
46846;BME280;33947;46.804;134.252;2023-07-22T13:31:33;100694.94;;;23.60;95.31
46846;BME280;33947;46.804;134.252;2023-07-22T13:34:38;100658.97;;;23.35;95.27
46846;BME280;33947;46.804;134.252;2023-07-22T13:37:43;100672.13;;;23.40;95.63
46846;BME280;33947;46.804;134.252;2023-07-22T13:40:47;100701.34;;;23.36;96.84
46846;BME280;33947;46.804;134.252;2023-07-22T13:43:54;100706.38;;;23.41;96.92
46846;BME280;33947;46.804;134.252;2023-07-22T13:47:02;100705.66;;;23.39;96.75
46846;BME280;33947;46.804;134.252;2023-07-22T13:50:07;100696.19;;;23.33;96.12
46846;BME280;33947;46.804;134.252;2023-07-22T13:53:12;100691.75;;;23.32;96.42
46846;BME280;33947;46.804;134.252;2023-07-22T13:56:17;100673.19;;;23.15;97.23
46846;BME280;33947;46.804;134.252;2023-07-22T13:59:22;100697.78;;;23.00;97.88
46846;BME280;33947;46.804;134.252;2023-07-22T14:02:27;100694.50;;;23.19;97.25
46846;BME280;33947;46.804;134.252;2023-07-22T14:05:38;100693.75;;;23.17;96.41
46846;BME280;33947;46.804;134.252;2023-07-22T14:08:45;100692.16;;;23.15;96.76
46846;BME280;33947;46.804;134.252;2023-07-22T14:11:50;100683.41;;;23.11;96.26
46846;BME280;33947;46.804;134.252;2023-07-22T14:14:58;100688.22;;;23.19;95.81
46846;BME280;33947;46.804;134.252;2023-07-22T14:18:05;100676.22;;;23.10;95.91
46846;BME280;33947;46.804;134.252;2023-07-22T14:21:10;100688.72;;;23.24;95.33
46846;BME280;33947;46.804;134.252;2023-07-22T14:24:14;100680.66;;;22.99;96.82
46846;BME280;33947;46.804;134.252;2023-07-22T14:27:25;100669.34;;;23.06;96.78
46846;BME280;33947;46.804;134.252;2023-07-22T14:30:30;100670.47;;;23.15;96.04
46846;BME280;33947;46.804;134.252;2023-07-22T14:33:36;100671.19;;;23.05;96.64
46846;BME280;33947;46.804;134.252;2023-07-22T14:36:41;100674.50;;;23.09;96.72
46846;BME280;33947;46.804;134.252;2023-07-22T14:39:48;100672.03;;;23.06;96.60
46846;BME280;33947;46.804;134.252;2023-07-22T14:42:56;100676.22;;;23.10;96.54
46846;BME280;33947;46.804;134.252;2023-07-22T14:46:25;100676.47;;;23.07;96.20
46846;BME280;33947;46.804;134.252;2023-07-22T14:49:29;100688.19;;;23.07;96.55
46846;BME280;33947;46.804;134.252;2023-07-22T14:52:34;100693.53;;;22.84;99.31
46846;BME280;33947;46.804;134.252;2023-07-22T14:55:39;100684.59;;;22.95;98.04
46846;BME280;33947;46.804;134.252;2023-07-22T14:58:45;100681.16;;;23.05;97.77
46846;BME280;33947;46.804;134.252;2023-07-22T15:01:50;100670.44;;;23.03;97.56
46846;BME280;33947;46.804;134.252;2023-07-22T15:04:54;100665.13;;;22.90;98.76
46846;BME280;33947;46.804;134.252;2023-07-22T15:07:59;100681.25;;;22.92;98.19
46846;BME280;33947;46.804;134.252;2023-07-22T15:11:04;100676.44;;;22.84;98.28
46846;BME280;33947;46.804;134.252;2023-07-22T15:14:09;100696.00;;;22.88;98.49
46846;BME280;33947;46.804;134.252;2023-07-22T15:17:13;100682.47;;;22.88;98.17
46846;BME280;33947;46.804;134.252;2023-07-22T15:20:18;100574.25;;;22.15;98.16
46846;BME280;33947;46.804;134.252;2023-07-22T15:23:23;100666.44;;;22.84;98.60
46846;BME280;33947;46.804;134.252;2023-07-22T15:26:28;100649.69;;;22.79;98.61
46846;BME280;33947;46.804;134.252;2023-07-22T15:29:33;100663.41;;;22.89;98.38
46846;BME280;33947;46.804;134.252;2023-07-22T15:32:40;100654.16;;;22.92;98.11
46846;BME280;33947;46.804;134.252;2023-07-22T15:35:49;100657.72;;;22.81;98.58
46846;BME280;33947;46.804;134.252;2023-07-22T15:38:54;100633.66;;;22.65;99.05
46846;BME280;33947;46.804;134.252;2023-07-22T15:42:01;100645.22;;;22.67;98.67
46846;BME280;33947;46.804;134.252;2023-07-22T15:45:10;100652.16;;;22.82;98.75
46846;BME280;33947;46.804;134.252;2023-07-22T15:48:21;100667.91;;;22.77;99.15
46846;BME280;33947;46.804;134.252;2023-07-22T15:51:26;100644.00;;;22.71;99.17
46846;BME280;33947;46.804;134.252;2023-07-22T15:54:32;100639.34;;;22.73;98.32
46846;BME280;33947;46.804;134.252;2023-07-22T15:57:36;100641.06;;;22.74;98.48
46846;BME280;33947;46.804;134.252;2023-07-22T16:00:41;100620.13;;;22.65;98.49
46846;BME280;33947;46.804;134.252;2023-07-22T16:03:45;100621.38;;;22.72;97.77